createdAt,value
2023-02-27T00:02:05.862Z,100848.63
2023-02-27T00:04:32.636Z,100848.56
2023-02-27T00:06:59.635Z,100851.28
2023-02-27T00:09:26.645Z,100854.88
2023-02-27T00:11:53.344Z,100855.69
2023-02-27T00:14:19.992Z,100860.25
2023-02-27T00:16:47.960Z,100853.06
2023-02-27T00:19:14.536Z,100851.22
2023-02-27T00:21:41.977Z,100845.09
2023-02-27T00:24:08.572Z,100847.00
2023-02-27T00:26:35.397Z,100843.28
2023-02-27T00:29:02.306Z,100851.28
2023-02-27T00:31:29.291Z,100847.78
2023-02-27T00:33:57.553Z,100849.50
2023-02-27T00:36:24.146Z,100849.56
2023-02-27T00:38:50.663Z,100845.91
2023-02-27T00:41:17.613Z,100852.22
2023-02-27T00:43:44.162Z,100851.31
2023-02-27T00:46:10.792Z,100854.97
2023-02-27T00:48:37.519Z,100852.31
2023-02-27T00:51:05.901Z,100855.81
2023-02-27T00:53:32.501Z,100852.34
2023-02-27T00:55:59.176Z,100846.88
2023-02-27T00:58:25.954Z,100851.25
2023-02-27T01:00:52.576Z,100856.69
2023-02-27T01:03:19.183Z,100854.91
2023-02-27T01:05:45.932Z,100856.69
2023-02-27T01:08:13.856Z,100854.03
2023-02-27T01:10:40.489Z,100856.63
2023-02-27T01:13:07.251Z,100844.13
2023-02-27T01:15:33.833Z,100858.53
2023-02-27T01:18:00.428Z,100848.66
2023-02-27T01:20:27.275Z,100851.41
2023-02-27T01:22:53.895Z,100849.66
2023-02-27T01:25:21.878Z,100847.66
2023-02-27T01:27:48.509Z,100842.50
2023-02-27T01:30:15.509Z,100846.81
2023-02-27T01:32:42.556Z,100840.50
2023-02-27T01:35:09.601Z,100840.72
2023-02-27T01:37:36.278Z,100837.06
2023-02-27T01:40:03.152Z,100850.50
2023-02-27T01:42:31.200Z,100838.84
2023-02-27T01:45:25.725Z,100829.19
2023-02-27T01:47:56.149Z,100828.25
2023-02-27T01:50:23.714Z,100830.06
2023-02-27T01:52:54.598Z,100831.03
2023-02-27T01:55:22.851Z,100821.22
2023-02-27T01:57:51.899Z,100826.56
2023-02-27T02:00:19.368Z,100832.84
2023-02-27T02:02:52.632Z,100835.47
2023-02-27T02:05:20.895Z,100835.41
2023-02-27T02:07:49.046Z,100838.97
2023-02-27T02:10:16.050Z,100845.31
2023-02-27T02:12:43.637Z,100833.59
2023-02-27T02:15:11.831Z,100834.50
2023-02-27T02:17:45.883Z,100837.28
2023-02-27T02:20:47.273Z,100831.91
2023-02-27T02:23:46.373Z,100837.97
2023-02-27T02:26:33.143Z,100837.94
2023-02-27T02:29:39.532Z,100832.72
2023-02-27T02:32:34.539Z,100828.19
2023-02-27T02:35:40.576Z,100831.00
2023-02-27T02:38:34.654Z,100829.22
2023-02-27T02:41:10.380Z,100830.09
2023-02-27T02:43:47.231Z,100830.91
2023-02-27T02:46:18.893Z,100837.22
2023-02-27T02:48:48.744Z,100825.47
2023-02-27T02:51:20.066Z,100821.16
2023-02-27T02:53:55.936Z,100827.25
2023-02-27T02:56:28.186Z,100825.63
2023-02-27T02:58:59.391Z,100819.38
2023-02-27T03:01:32.380Z,100814.91
2023-02-27T03:04:06.072Z,100821.06
2023-02-27T03:06:36.002Z,100830.09
2023-02-27T03:09:10.435Z,100822.00
2023-02-27T03:11:41.202Z,100827.41
2023-02-27T03:14:13.713Z,100822.13
2023-02-27T03:16:43.061Z,100832.78
2023-02-27T03:19:13.229Z,100815.72
2023-02-27T03:21:46.108Z,100839.84
2023-02-27T03:24:20.609Z,100836.31
2023-02-27T03:26:50.157Z,100836.34
2023-02-27T03:29:21.664Z,100837.25
2023-02-27T03:31:54.051Z,100845.28
2023-02-27T03:34:25.043Z,100837.22
2023-02-27T03:37:00.882Z,100843.50
2023-02-27T03:39:37.499Z,100843.44
2023-02-27T03:42:12.427Z,100851.50
2023-02-27T03:44:50.078Z,100850.69
2023-02-27T03:47:18.545Z,100855.16
2023-02-27T03:49:45.106Z,100858.59
2023-02-27T03:52:11.990Z,100857.72
2023-02-27T03:54:47.809Z,100864.03
2023-02-27T03:57:14.368Z,100855.91
2023-02-27T03:59:41.024Z,100862.25
2023-02-27T04:02:08.341Z,100862.97
2023-02-27T04:04:35.080Z,100859.47
2023-02-27T04:07:06.596Z,100859.44
2023-02-27T04:09:51.371Z,100863.94
2023-02-27T04:12:35.216Z,100870.16
2023-02-27T04:15:13.449Z,100872.06
2023-02-27T04:17:49.638Z,100871.97
2023-02-27T04:20:29.092Z,100868.44
2023-02-27T04:23:01.344Z,100867.59
2023-02-27T04:25:49.903Z,100871.09
2023-02-27T04:28:22.087Z,100869.31
2023-02-27T04:30:59.888Z,100869.22
2023-02-27T04:33:35.273Z,100871.88
2023-02-27T04:36:10.259Z,100873.66
2023-02-27T04:38:42.423Z,100876.47
2023-02-27T04:41:15.245Z,100873.66
2023-02-27T04:43:44.774Z,100873.75
2023-02-27T04:46:16.269Z,100874.59
2023-02-27T04:48:51.072Z,100884.50
2023-02-27T04:51:23.032Z,100887.13
2023-02-27T04:53:54.705Z,100888.16
2023-02-27T04:56:27.409Z,100882.78
2023-02-27T04:58:56.920Z,100889.91
2023-02-27T05:01:31.448Z,100894.38
2023-02-27T05:04:00.504Z,100889.91
2023-02-27T05:06:30.765Z,100886.41
2023-02-27T05:09:04.234Z,100894.34
2023-02-27T05:11:38.377Z,100888.09
2023-02-27T05:14:13.624Z,100895.31
2023-02-27T05:16:46.718Z,100889.06
2023-02-27T05:19:13.834Z,100892.63
2023-02-27T05:21:48.803Z,100900.63
2023-02-27T05:24:24.119Z,100892.63
2023-02-27T05:27:05.875Z,100897.06
2023-02-27T05:29:37.989Z,100893.50
2023-02-27T05:32:12.828Z,100899.72
2023-02-27T05:34:44.726Z,100901.53
2023-02-27T05:37:16.783Z,100902.44
2023-02-27T05:39:46.109Z,100906.00
2023-02-27T05:42:19.613Z,100901.50
2023-02-27T05:44:54.749Z,100912.28
2023-02-27T05:47:25.417Z,100904.28
2023-02-27T05:49:55.448Z,100918.50
2023-02-27T05:52:24.992Z,100917.63
2023-02-27T05:54:56.739Z,100916.75
2023-02-27T05:57:29.363Z,100912.28
2023-02-27T06:00:02.326Z,100913.16
2023-02-27T06:02:29.480Z,100908.69
2023-02-27T06:04:56.444Z,100930.09
2023-02-27T06:07:23.621Z,100925.63
2023-02-27T06:09:50.655Z,100930.97
2023-02-27T06:12:17.539Z,100941.69
2023-02-27T06:14:45.529Z,100939.03
2023-02-27T06:17:12.173Z,100948.78
2023-02-27T06:20:10.586Z,100941.66
2023-02-27T06:22:37.154Z,100942.59
2023-02-27T06:25:04.402Z,100951.50
2023-02-27T06:27:31.104Z,100951.44
2023-02-27T06:29:59.009Z,100965.72
2023-02-27T06:32:25.813Z,100974.63
2023-02-27T06:34:52.663Z,100963.03
2023-02-27T06:37:19.296Z,100973.72
2023-02-27T06:39:45.822Z,100976.41
2023-02-27T06:42:12.534Z,100972.84
2023-02-27T06:44:39.143Z,100970.19
2023-02-27T06:47:07.113Z,100965.72
2023-02-27T06:49:33.815Z,100977.28
2023-02-27T06:52:00.476Z,100971.03
2023-02-27T06:54:27.045Z,100964.78
2023-02-27T06:56:53.626Z,100968.34
2023-02-27T06:59:20.209Z,100970.97
2023-02-27T07:01:46.831Z,100960.25
2023-02-27T07:04:15.618Z,100978.97
2023-02-27T07:07:35.851Z,100978.03
2023-02-27T07:09:28.982Z,100978.94
2023-02-27T07:11:55.724Z,100977.09
2023-02-27T07:14:22.372Z,100974.22
2023-02-27T07:16:49.104Z,100979.59
2023-02-27T07:19:17.693Z,100989.41
2023-02-27T07:21:44.407Z,100991.13
2023-02-27T07:24:11.127Z,100991.78
2023-02-27T07:26:38.120Z,100992.88
2023-02-27T07:29:05.636Z,100989.03
2023-02-27T07:31:33.019Z,100993.69
2023-02-27T07:33:59.879Z,100996.19
2023-02-27T07:36:28.123Z,100997.97
2023-02-27T07:38:54.840Z,101011.06
2023-02-27T07:41:30.438Z,101009.44
2023-02-27T07:43:58.513Z,101013.84
2023-02-27T07:46:25.160Z,101014.84
2023-02-27T07:48:51.807Z,101021.09
2023-02-27T07:51:18.476Z,101016.47
2023-02-27T07:53:46.539Z,101017.13
2023-02-27T07:56:13.109Z,101022.69
2023-02-27T07:58:39.692Z,101022.41
2023-02-27T08:01:06.313Z,101019.66
2023-02-27T08:03:32.888Z,101017.09
2023-02-27T08:06:02.089Z,101016.97
2023-02-27T08:08:29.148Z,101007.81
2023-02-27T08:10:57.133Z,101006.19
2023-02-27T08:13:42.498Z,101016.81
2023-02-27T08:16:10.461Z,101008.28
2023-02-27T08:18:37.186Z,101004.38
2023-02-27T08:21:04.187Z,100998.38
2023-02-27T08:23:30.942Z,101004.38
2023-02-27T08:25:58.960Z,101005.97
2023-02-27T08:28:25.835Z,101004.81
2023-02-27T08:30:52.471Z,101017.81
2023-02-27T08:33:19.251Z,101014.34
2023-02-27T08:35:45.904Z,101014.91
2023-02-27T08:38:12.516Z,101009.13
2023-02-27T08:40:39.178Z,101009.38
2023-02-27T08:43:07.349Z,101012.78
2023-02-27T08:45:34.059Z,101007.53
2023-02-27T08:48:00.716Z,101014.56
2023-02-27T08:50:27.378Z,100993.56
2023-02-27T08:52:53.974Z,101005.09
2023-02-27T08:55:20.580Z,100999.53
2023-02-27T08:57:47.176Z,101009.44
2023-02-27T09:00:16.361Z,100999.44
2023-02-27T09:02:43.135Z,101015.19
2023-02-27T09:05:09.967Z,101002.91
2023-02-27T09:07:36.630Z,100999.66
2023-02-27T09:10:03.759Z,101008.94
2023-02-27T09:12:30.317Z,101018.56
2023-02-27T09:14:57.132Z,101027.88
2023-02-27T09:17:25.481Z,101019.50
2023-02-27T09:19:52.274Z,101019.47
2023-02-27T09:22:19.210Z,101035.75
2023-02-27T09:24:46.000Z,101037.00
2023-02-27T09:27:12.613Z,101030.56
2023-02-27T09:29:42.446Z,101018.44
2023-02-27T09:32:09.844Z,101025.53
2023-02-27T09:34:39.949Z,101025.06
2023-02-27T09:37:06.671Z,101014.94
2023-02-27T09:39:33.304Z,101022.38
2023-02-27T09:42:17.677Z,101006.84
2023-02-27T09:44:47.917Z,101030.88
2023-02-27T09:47:21.872Z,101022.94
2023-02-27T09:50:02.100Z,101038.81
2023-02-27T09:52:32.246Z,101027.41
2023-02-27T09:54:58.973Z,101031.28
2023-02-27T09:57:41.550Z,101034.34
2023-02-27T10:00:19.922Z,101029.06
2023-02-27T10:02:57.347Z,101022.03
2023-02-27T10:05:35.341Z,101024.59
2023-02-27T10:08:10.736Z,101053.78
2023-02-27T10:10:44.009Z,101033.97
2023-02-27T10:13:39.297Z,101035.97
2023-02-27T10:16:09.898Z,101029.47
2023-02-27T10:18:47.911Z,101040.03
2023-02-27T10:21:21.041Z,101043.94
2023-02-27T10:23:55.173Z,101052.34
2023-02-27T10:26:25.347Z,101035.78
2023-02-27T10:28:52.441Z,101030.13
2023-02-27T10:31:23.617Z,101064.91
2023-02-27T10:33:51.824Z,101039.19
2023-02-27T10:36:33.099Z,101036.72
2023-02-27T10:39:05.281Z,101046.66
2023-02-27T10:41:31.920Z,101039.69
2023-02-27T10:44:00.101Z,101025.22
2023-02-27T10:46:29.300Z,101037.00
2023-02-27T10:48:59.408Z,101041.06
2023-02-27T10:51:29.875Z,101036.38
2023-02-27T10:54:15.934Z,101042.22
2023-02-27T10:56:47.296Z,101043.09
2023-02-27T10:59:19.302Z,101027.50
2023-02-27T11:01:50.102Z,101023.81
2023-02-27T11:04:27.039Z,101033.53
2023-02-27T11:06:59.588Z,101022.63
2023-02-27T11:09:28.016Z,101023.41
2023-02-27T11:11:55.895Z,101050.16
2023-02-27T11:14:31.463Z,101032.50
2023-02-27T11:17:00.897Z,101021.72
2023-02-27T11:19:33.652Z,101034.25
2023-02-27T11:22:04.865Z,101022.50
2023-02-27T11:24:32.035Z,101007.53
2023-02-27T11:26:59.993Z,101014.13
2023-02-27T11:29:27.215Z,101025.72
2023-02-27T11:31:56.016Z,101013.72
2023-02-27T11:34:27.155Z,101004.13
2023-02-27T11:36:58.007Z,101006.38
2023-02-27T11:39:30.455Z,100996.94
2023-02-27T11:41:59.139Z,100992.16
2023-02-27T11:44:49.610Z,100984.94
2023-02-27T11:47:19.963Z,100995.19
2023-02-27T11:50:14.510Z,100980.56
2023-02-27T11:52:47.703Z,100994.72
2023-02-27T11:55:18.550Z,100997.75
2023-02-27T11:57:49.060Z,100976.84
2023-02-27T12:00:19.466Z,100969.06
2023-02-27T12:02:53.375Z,100975.44
2023-02-27T12:05:25.815Z,100976.63
2023-02-27T12:07:57.083Z,100983.63
2023-02-27T12:10:28.678Z,100975.66
2023-02-27T12:13:00.434Z,100987.97
2023-02-27T12:15:34.096Z,100985.75
2023-02-27T12:18:08.961Z,100980.34
2023-02-27T12:20:40.528Z,100965.75
2023-02-27T12:23:18.029Z,100972.31
2023-02-27T12:25:50.317Z,100952.19
2023-02-27T12:28:30.262Z,100962.75
2023-02-27T12:31:08.557Z,100966.03
2023-02-27T12:33:41.802Z,100949.91
2023-02-27T12:36:12.380Z,100963.25
2023-02-27T12:38:41.881Z,100940.31
2023-02-27T12:41:42.354Z,100948.59
2023-02-27T12:44:28.030Z,100952.56
2023-02-27T12:47:05.782Z,100937.91
2023-02-27T12:49:41.917Z,100940.56
2023-02-27T12:52:19.396Z,100940.94
2023-02-27T12:54:56.010Z,100962.41
2023-02-27T12:57:32.190Z,100944.16
2023-02-27T13:00:10.155Z,100957.78
2023-02-27T13:03:08.206Z,100941.66
2023-02-27T13:05:53.962Z,100948.03
2023-02-27T13:08:43.989Z,100930.22
2023-02-27T13:11:22.217Z,100928.78
2023-02-27T13:13:54.781Z,100926.72
2023-02-27T13:16:25.645Z,100958.03
2023-02-27T13:18:56.970Z,100926.94
2023-02-27T13:21:30.920Z,100934.94
2023-02-27T13:24:12.224Z,100923.94
2023-02-27T13:26:42.289Z,100914.56
2023-02-27T13:29:15.167Z,100922.03
2023-02-27T13:31:48.870Z,100942.47
2023-02-27T13:34:23.104Z,100917.31
2023-02-27T13:36:57.820Z,100913.09
2023-02-27T13:39:52.861Z,100937.81
2023-02-27T13:42:52.492Z,100929.88
2023-02-27T13:45:53.010Z,100929.25
2023-02-27T13:48:48.199Z,100932.31
2023-02-27T13:51:55.694Z,100909.16
2023-02-27T13:54:34.233Z,100914.94
2023-02-27T13:57:20.946Z,100914.84
2023-02-27T13:59:56.197Z,100904.16
2023-02-27T14:02:46.572Z,100908.16
2023-02-27T14:05:29.680Z,100903.97
2023-02-27T14:08:03.402Z,100915.28
2023-02-27T14:10:31.490Z,100938.09
2023-02-27T14:12:58.535Z,100925.19
2023-02-27T14:15:52.030Z,100939.00
2023-02-27T14:18:57.139Z,100915.34
2023-02-27T14:21:59.419Z,100924.22
2023-02-27T14:24:33.692Z,100907.41
2023-02-27T14:27:00.893Z,100913.09
2023-02-27T14:29:31.086Z,100930.44
2023-02-27T14:32:00.458Z,100913.56
2023-02-27T14:34:29.387Z,100906.16
2023-02-27T14:36:58.333Z,100916.69
2023-02-27T14:39:27.711Z,100948.81
2023-02-27T14:42:07.329Z,100935.88
2023-02-27T14:44:39.112Z,100947.16
2023-02-27T14:47:06.065Z,100923.56
2023-02-27T14:49:35.650Z,100922.81
2023-02-27T14:52:22.982Z,100932.91
2023-02-27T14:54:51.141Z,100920.47
2023-02-27T14:57:20.458Z,100928.97
2023-02-27T14:59:49.393Z,100937.69
2023-02-27T15:02:22.983Z,100929.56
2023-02-27T15:04:55.434Z,100934.22
2023-02-27T15:07:24.289Z,100942.25
2023-02-27T15:09:53.787Z,100957.59
2023-02-27T15:12:22.061Z,100931.13
2023-02-27T15:14:51.948Z,100941.88
2023-02-27T15:17:20.467Z,100935.47
2023-02-27T15:19:49.357Z,100934.63
2023-02-27T15:22:36.189Z,100934.41
2023-02-27T15:25:05.168Z,100952.56
2023-02-27T15:27:31.828Z,100953.50
2023-02-27T15:30:00.427Z,100948.34
2023-02-27T15:32:29.744Z,100943.19
2023-02-27T15:34:57.284Z,100936.03
2023-02-27T15:37:28.580Z,100929.53
2023-02-27T15:39:56.397Z,100949.44
2023-02-27T15:42:26.259Z,100954.38
2023-02-27T15:44:54.227Z,100963.59
2023-02-27T15:47:23.930Z,100942.97
2023-02-27T15:49:55.458Z,100944.88
2023-02-27T15:52:25.847Z,100942.78
2023-02-27T15:54:59.261Z,100952.97
2023-02-27T15:57:26.049Z,100948.34
2023-02-27T15:59:55.099Z,100948.59
2023-02-27T16:02:26.757Z,100944.66
2023-02-27T16:04:53.578Z,100954.63
2023-02-27T16:07:22.828Z,100960.38
2023-02-27T16:09:54.394Z,100948.84
2023-02-27T16:12:24.417Z,100941.41
2023-02-27T16:14:52.479Z,100966.28
2023-02-27T16:17:27.780Z,100960.00
2023-02-27T16:19:55.375Z,100950.59
2023-02-27T16:22:22.453Z,100964.81
2023-02-27T16:24:51.473Z,100962.03
2023-02-27T16:27:22.617Z,100963.00
2023-02-27T16:29:49.914Z,100977.22
2023-02-27T16:32:24.553Z,100962.34
2023-02-27T16:34:55.670Z,100964.25
2023-02-27T16:37:26.465Z,100969.56
2023-02-27T16:39:54.472Z,100973.91
2023-02-27T16:42:21.553Z,100967.28
2023-02-27T16:44:48.507Z,100971.84
2023-02-27T16:47:15.245Z,100979.28
2023-02-27T16:49:45.687Z,100972.56
2023-02-27T16:52:12.337Z,100971.53
2023-02-27T16:54:38.961Z,100968.78
2023-02-27T16:57:06.999Z,100972.22
2023-02-27T16:59:35.439Z,100978.59
2023-02-27T17:02:10.220Z,100971.94
2023-02-27T17:04:37.022Z,100969.31
2023-02-27T17:07:06.350Z,100984.94
2023-02-27T17:09:45.184Z,100966.81
2023-02-27T17:12:18.260Z,100976.47
2023-02-27T17:14:46.680Z,100976.59
2023-02-27T17:17:21.416Z,100979.06
2023-02-27T17:20:17.657Z,100990.63
2023-02-27T17:22:55.360Z,100992.53
2023-02-27T17:28:19.980Z,100989.28
2023-02-27T17:30:50.202Z,101000.25
2023-02-27T17:33:31.235Z,101011.19
2023-02-27T17:36:16.778Z,100994.66
2023-02-27T17:38:57.322Z,101016.19
2023-02-27T17:41:28.223Z,101017.34
2023-02-27T17:43:57.774Z,101011.56
2023-02-27T17:46:31.496Z,101009.19
2023-02-27T17:49:33.451Z,101027.41
2023-02-27T17:59:14.764Z,101007.84
2023-02-27T18:01:48.652Z,101028.16
2023-02-27T18:04:15.406Z,101028.84
2023-02-27T18:06:42.133Z,101043.16
2023-02-27T18:39:55.261Z,101035.81
2023-02-27T18:42:37.687Z,101018.84
2023-02-27T19:22:41.065Z,101057.13
2023-02-27T19:25:09.469Z,101046.19
2023-02-27T19:27:40.784Z,101028.38
2023-02-27T19:30:08.831Z,101045.97
2023-02-27T19:36:37.776Z,101040.25
2023-02-27T19:39:04.636Z,101053.53
2023-02-27T19:42:03.103Z,101041.88
2023-02-27T19:44:32.139Z,101037.06
2023-02-27T19:47:01.829Z,101045.69
2023-02-27T19:49:49.343Z,101026.84
2023-02-27T19:52:34.343Z,101025.13
2023-02-27T19:55:19.545Z,101034.16
2023-02-27T19:58:04.725Z,101050.97
2023-02-27T20:04:15.177Z,101026.19
2023-02-27T20:06:43.529Z,101053.22
2023-02-27T20:09:23.844Z,101034.91
2023-02-27T20:11:53.159Z,101029.59
2023-02-27T20:14:21.471Z,101043.09
2023-02-27T20:16:48.312Z,101051.94
2023-02-27T20:19:17.190Z,101060.31
2023-02-27T20:21:44.567Z,101058.72
2023-02-27T20:24:13.257Z,101052.31
2023-02-27T20:26:42.614Z,101052.41
2023-02-27T20:29:12.540Z,101056.81
2023-02-27T20:31:42.474Z,101059.41
2023-02-27T20:34:09.725Z,101044.75
2023-02-27T20:36:38.012Z,101056.03
2023-02-27T20:39:08.112Z,101047.63
2023-02-27T20:41:35.377Z,101049.44
2023-02-27T20:44:02.898Z,101044.91
2023-02-27T20:46:30.218Z,101052.91
2023-02-27T20:49:00.458Z,101054.78
2023-02-27T20:51:30.185Z,101053.00
2023-02-27T20:53:59.387Z,101049.19
2023-02-27T20:56:30.609Z,101049.44
2023-02-27T20:58:57.635Z,101051.31
2023-02-27T21:01:24.291Z,101048.69
2023-02-27T21:03:51.005Z,101049.81
2023-02-27T21:06:19.446Z,101043.38
2023-02-27T21:08:47.750Z,101050.38
2023-02-27T21:11:17.204Z,101055.72
2023-02-27T21:13:44.078Z,101046.88
2023-02-27T21:16:13.461Z,101056.38
2023-02-27T21:18:40.668Z,101055.63
2023-02-27T21:21:08.871Z,101054.00
2023-02-27T21:23:37.532Z,101052.00
2023-02-27T21:26:04.845Z,101059.16
2023-02-27T21:28:31.381Z,101053.13
2023-02-27T21:30:58.190Z,101047.75
2023-02-27T21:33:24.798Z,101051.94
2023-02-27T21:35:51.472Z,101055.66
2023-02-27T21:38:18.171Z,101054.09
2023-02-27T21:40:46.233Z,101065.44
2023-02-27T21:43:12.817Z,101056.53
2023-02-27T21:45:39.528Z,101071.91
2023-02-27T21:48:06.457Z,101064.69
2023-02-27T21:50:33.070Z,101064.88
2023-02-27T21:52:59.611Z,101076.69
2023-02-27T21:55:26.296Z,101066.00
2023-02-27T21:57:54.213Z,101075.88
2023-02-27T22:00:21.407Z,101072.25
2023-02-27T22:02:48.054Z,101064.34
2023-02-27T22:05:14.664Z,101066.16
2023-02-27T22:07:41.237Z,101070.59
2023-02-27T22:10:09.228Z,101063.63
2023-02-27T22:12:35.860Z,101059.06
2023-02-27T22:15:04.455Z,101064.63
2023-02-27T22:17:31.049Z,101051.31
2023-02-27T22:19:57.961Z,101062.75
2023-02-27T22:22:24.570Z,101061.16
2023-02-27T22:24:51.131Z,101059.31
2023-02-27T22:27:17.891Z,101068.31
2023-02-27T22:29:44.476Z,101065.69
2023-02-27T22:32:12.476Z,101062.09
2023-02-27T22:34:39.481Z,101062.94
2023-02-27T22:37:06.017Z,101061.16
2023-02-27T22:39:32.703Z,101064.69
2023-02-27T22:41:59.395Z,101063.91
2023-02-27T22:44:26.019Z,101078.19
2023-02-27T22:46:52.648Z,101082.53
2023-02-27T22:49:22.300Z,101085.16
2023-02-27T22:51:51.198Z,101071.75
2023-02-27T22:54:19.751Z,101082.53
2023-02-27T22:56:48.556Z,101082.53
2023-02-27T22:59:15.125Z,101081.59
2023-02-27T23:01:41.731Z,101085.09
2023-02-27T23:04:09.085Z,101089.41
2023-02-27T23:06:38.743Z,101083.28
2023-02-27T23:09:08.514Z,101066.25
2023-02-27T23:11:35.253Z,101083.25
2023-02-27T23:14:01.967Z,101082.53
2023-02-27T23:16:28.817Z,101089.53
2023-02-27T23:18:57.747Z,101094.81
2023-02-27T23:21:27.819Z,101093.97
2023-02-27T23:23:55.988Z,101095.94
2023-02-27T23:26:22.933Z,101101.28
2023-02-27T23:28:49.667Z,101112.03
2023-02-27T23:31:16.478Z,101098.69
2023-02-27T23:33:43.155Z,101110.41
2023-02-27T23:36:09.836Z,101106.81
2023-02-27T23:38:36.604Z,101103.28
2023-02-27T23:41:08.914Z,101115.72
2023-02-27T23:43:36.248Z,101100.50
2023-02-27T23:46:06.913Z,101100.72
2023-02-27T23:48:34.465Z,101117.66
2023-02-27T23:51:02.105Z,101118.56
2023-02-27T23:53:28.835Z,101121.13
2023-02-27T23:55:55.535Z,101102.50
2023-02-27T23:58:24.012Z,101114.75
